Reichenau, Austria
Current Conditions -  °F | °C
As of 12:20 PM on Saturday 01 Nov 2014 (Local Time) from LOWW Reporting Station
Few Clouds Few Clouds  
Wind Chill: 50°   Ceiling: Unl
Heat Index: 50°   Visibility: 4mi
Dew Point: 45°   Wind: 5mph
Humidity: 82%   Direction: 130°SE
Pressure: 30.3"   Gusts: NA
Location:  47.7°N, 15.83°E
Report Text: LOWW 011020Z 13004KT 100V160 7000 FEW250 10/07 Q1026 NOSIG
Loading
Personal Weather Stations






























Interactive Weather Map
Tropical Storm Tracking
New forecast layout! Learn more

10-Day Weather Forecast

Advertisements
Track Severe Weather on mobile